Time;durP1;ratioP1;P1;durP2;ratioP2;P2;SDS_P1;SDS_P2;PMS_P1;PMS_P2;Temp;Humidity;BMP_temperature;BMP_pressure;BME280_temperature;BME280_humidity;BME280_pressure;Samples;Min_cycle;Max_cycle;Signal;HPM_P1;HPM_P2
2022/09/24 13:44:37;;;;;;;0.20;0.20;;;;;;;;;;1793147;77;27939;-47
2022/09/24 13:47:16;;;;;;;0.30;0.30;;;;;;;;;;1770082;79;21439;-49
2022/09/24 13:49:46;;;;;;;1.52;0.30;;;;;;;;;;1774299;78;21806;-50
2022/09/24 13:52:16;;;;;;;0.95;0.40;;;;;;;;;;1768448;79;21318;-50
2022/09/24 13:54:52;;;;;;;1.17;1.15;;;;;;;;;;1765970;79;21054;-50
2022/09/24 13:57:23;;;;;;;0.50;0.50;;;;;;;;;;1764189;79;21045;-49
2022/09/24 14:00:05;;;;;;;0.30;0.30;;;;;;;;;;1750482;81;21409;-46
2022/09/24 14:02:33;;;;;;;0.50;0.20;;;;;;;;;;1693496;81;21830;-48
2022/09/24 14:04:59;;;;;;;0.20;0.20;;;;;;;;;;1751249;80;21061;-48
2022/09/24 14:07:26;;;;;;;1.00;0.20;;;;;;;;;;1751617;81;21159;-47
2022/09/24 14:10:06;;;;;;;2.85;0.20;;;;;;;;;;1750149;80;20986;-47
2022/09/24 14:12:33;;;;;;;0.28;0.20;;;;;;;;;;1748202;80;21072;-50
2022/09/24 14:15:03;;;;;;;0.20;0.20;;;;;;;;;;1749255;80;21764;-50
2022/09/24 14:17:29;;;;;;;0.28;0.28;;;;;;;;;;1750174;81;21909;-48
2022/09/24 14:19:56;;;;;;;0.30;0.30;;;;;;;;;;1749792;81;21541;-47
2022/09/24 14:22:25;;;;;;;0.40;0.30;;;;;;;;;;1747302;81;21573;-50
2022/09/24 14:24:55;;;;;;;0.40;0.30;;;;;;;;;;1748177;80;21065;-45
2022/09/24 14:27:22;;;;;;;0.30;0.30;;;;;;;;;;1742280;80;21917;-46
2022/09/24 14:29:57;;;;;;;0.28;0.20;;;;;;;;;;1746701;81;21025;-47
2022/09/24 14:32:26;;;;;;;0.20;0.20;;;;;;;;;;1752604;80;21097;-48
2022/09/24 14:34:55;;;;;;;0.23;0.23;;;;;;;;;;1750808;80;21068;-47
2022/09/24 14:37:25;;;;;;;0.33;0.30;;;;;;;;;;1739818;81;21128;-49
2022/09/24 14:40:06;;;;;;;4.05;0.40;;;;;;;;;;1748528;81;21820;-47
2022/09/24 14:42:42;;;;;;;0.20;0.20;;;;;;;;;;1742316;81;21124;-49
2022/09/24 14:45:09;;;;;;;0.20;0.20;;;;;;;;;;1739270;80;21069;-48
2022/09/24 14:47:35;;;;;;;0.42;0.30;;;;;;;;;;1735651;81;21100;-48
2022/09/24 14:50:07;;;;;;;0.40;0.20;;;;;;;;;;1717742;82;21531;-47
2022/09/24 14:52:36;;;;;;;0.70;0.30;;;;;;;;;;1731244;80;22292;-47
2022/09/24 14:55:17;;;;;;;0.50;0.30;;;;;;;;;;1729694;81;21065;-50
2022/09/24 14:57:44;;;;;;;1.95;0.30;;;;;;;;;;1734666;81;21151;-47
2022/09/24 15:00:23;;;;;;;0.30;0.20;;;;;;;;;;1737894;81;21037;-47
2022/09/24 15:03:01;;;;;;;2.80;0.40;;;;;;;;;;1735892;81;21335;-46
2022/09/24 15:05:28;;;;;;;0.30;0.30;;;;;;;;;;1729756;81;21654;-47
2022/09/24 15:08:17;;;;;;;0.33;0.30;;;;;;;;;;1731137;80;21089;-46
2022/09/24 15:11:01;;;;;;;0.40;0.40;;;;;;;;;;1723052;80;21109;-47
2022/09/24 15:13:34;;;;;;;1.10;0.50;;;;;;;;;;1736231;81;21516;-48
2022/09/24 15:16:22;;;;;;;0.30;0.30;;;;;;;;;;1734715;80;21058;-48
2022/09/24 15:19:09;;;;;;;0.55;0.33;;;;;;;;;;1732635;81;21577;-49
2022/09/24 15:21:36;;;;;;;0.20;0.20;;;;;;;;;;1736802;80;21082;-47
2022/09/24 15:24:02;;;;;;;0.28;0.28;;;;;;;;;;1738346;81;21058;-49
2022/09/24 15:26:30;;;;;;;0.50;0.40;;;;;;;;;;1737360;81;21305;-46
2022/09/24 15:28:57;;;;;;;0.40;0.30;;;;;;;;;;1736609;81;21102;-46
2022/09/24 15:31:24;;;;;;;0.40;0.30;;;;;;;;;;1736181;81;22888;-47
2022/09/24 15:33:50;;;;;;;0.95;0.30;;;;;;;;;;1730494;81;21035;-50
2022/09/24 15:36:19;;;;;;;1.52;0.40;;;;;;;;;;1734365;81;21113;-48
2022/09/24 15:38:46;;;;;;;1.75;0.50;;;;;;;;;;1733228;81;21089;-50
2022/09/24 15:41:14;;;;;;;0.68;0.40;;;;;;;;;;1734190;81;21075;-51
2022/09/24 15:43:41;;;;;;;0.70;0.40;;;;;;;;;;1721758;81;21642;-47
2022/09/24 15:46:07;;;;;;;0.68;0.40;;;;;;;;;;1702098;83;21077;-46
2022/09/24 15:48:34;;;;;;;0.80;0.42;;;;;;;;;;1703182;82;21348;-46
2022/09/24 15:51:00;;;;;;;0.57;0.45;;;;;;;;;;1700344;83;21062;-48
2022/09/24 15:53:27;;;;;;;0.42;0.40;;;;;;;;;;1703704;83;21116;-47
2022/09/24 15:55:55;;;;;;;0.90;0.50;;;;;;;;;;1700018;83;21758;-47
2022/09/24 15:58:21;;;;;;;0.53;0.42;;;;;;;;;;1702008;82;21112;-51
2022/09/24 16:00:47;;;;;;;1.37;0.53;;;;;;;;;;1701504;83;21097;-47
2022/09/24 16:03:27;;;;;;;3.52;0.50;;;;;;;;;;1695648;83;21063;-45
2022/09/24 16:05:53;;;;;;;1.00;0.50;;;;;;;;;;1698822;82;21188;-46
2022/09/24 16:08:20;;;;;;;1.10;0.65;;;;;;;;;;1695097;83;21890;-46
2022/09/24 16:10:48;;;;;;;2.50;0.60;;;;;;;;;;1698865;83;21090;-47
2022/09/24 16:13:14;;;;;;;0.60;0.50;;;;;;;;;;1703375;83;21127;-48
2022/09/24 16:15:42;;;;;;;1.67;0.60;;;;;;;;;;1700784;82;21061;-47
2022/09/24 16:18:10;;;;;;;1.37;0.50;;;;;;;;;;1700571;82;21087;-47
2022/09/24 16:20:39;;;;;;;0.75;0.50;;;;;;;;;;1701896;83;22577;-48
2022/09/24 16:23:08;;;;;;;0.90;0.60;;;;;;;;;;1692947;83;21105;-48
2022/09/24 16:25:34;;;;;;;0.60;0.47;;;;;;;;;;1699993;83;21500;-47
2022/09/24 16:28:01;;;;;;;0.70;0.50;;;;;;;;;;1699462;83;21071;-47
2022/09/24 16:30:27;;;;;;;0.85;0.50;;;;;;;;;;1702401;83;21059;-47
2022/09/24 16:32:53;;;;;;;4.60;0.60;;;;;;;;;;1698458;83;22569;-50
2022/09/24 16:35:21;;;;;;;1.30;0.60;;;;;;;;;;1698082;82;21071;-50
2022/09/24 16:37:47;;;;;;;1.72;0.80;;;;;;;;;;1699261;82;21049;-47
2022/09/24 16:40:14;;;;;;;2.27;0.88;;;;;;;;;;1699652;82;21102;-47
2022/09/24 16:42:40;;;;;;;1.77;0.80;;;;;;;;;;1705660;82;21003;-46
2022/09/24 16:45:09;;;;;;;5.00;1.25;;;;;;;;;;1712074;82;22502;-46
2022/09/24 16:47:36;;;;;;;3.67;2.83;;;;;;;;;;1711598;82;20985;-46
2022/09/24 16:50:04;;;;;;;8.43;4.97;;;;;;;;;;1709683;82;21003;-48
2022/09/24 16:52:30;;;;;;;5.45;3.42;;;;;;;;;;1711803;81;21075;-50
2022/09/24 16:54:57;;;;;;;5.35;2.87;;;;;;;;;;1714076;81;20986;-50
2022/09/24 16:57:23;;;;;;;6.10;3.70;;;;;;;;;;1717270;80;21955;-47
2022/09/24 16:59:49;;;;;;;4.75;3.80;;;;;;;;;;1715043;81;20982;-50
2022/09/24 17:02:16;;;;;;;5.22;2.95;;;;;;;;;;1717102;81;21505;-49
2022/09/24 17:04:43;;;;;;;2.87;2.60;;;;;;;;;;1715422;82;21022;-50
2022/09/24 17:07:11;;;;;;;3.92;2.75;;;;;;;;;;1720513;81;20998;-50
2022/09/24 17:10:37;;;;;;;2.12;1.45;;;;;;;;;;1715947;81;21816;-47
2022/09/24 17:12:14;;;;;;;7.47;2.05;;;;;;;;;;1686875;82;20978;-48
2022/09/24 17:14:41;;;;;;;1.72;1.50;;;;;;;;;;1718054;81;20980;-50
2022/09/24 17:17:07;;;;;;;3.25;1.60;;;;;;;;;;1692439;82;21006;-47
2022/09/24 17:19:34;;;;;;;1.40;1.07;;;;;;;;;;1688648;82;21498;-47
2022/09/24 17:22:00;;;;;;;3.35;1.12;;;;;;;;;;1720281;81;22606;-49
2022/09/24 17:24:27;;;;;;;3.00;1.77;;;;;;;;;;1718100;82;21068;-48
2022/09/24 17:26:55;;;;;;;4.03;1.95;;;;;;;;;;1716893;82;21136;-47
2022/09/24 17:29:23;;;;;;;3.90;3.60;;;;;;;;;;1712205;81;21778;-45
2022/09/24 17:31:49;;;;;;;5.05;3.87;;;;;;;;;;1705718;82;21543;-45
2022/09/24 17:34:15;;;;;;;6.80;4.28;;;;;;;;;;1710820;82;21169;-46
2022/09/24 17:36:41;;;;;;;5.90;5.20;;;;;;;;;;1718817;82;21056;-46
2022/09/24 17:39:09;;;;;;;4.62;4.00;;;;;;;;;;1654079;84;21014;-46
2022/09/24 17:41:36;;;;;;;6.05;4.03;;;;;;;;;;1703749;82;21184;-49
2022/09/24 17:44:03;;;;;;;4.15;3.55;;;;;;;;;;1720451;81;21718;-48
2022/09/24 17:46:30;;;;;;;3.72;3.40;;;;;;;;;;1745321;81;21823;-48
2022/09/24 17:48:58;;;;;;;2.98;2.27;;;;;;;;;;1752439;80;21022;-48
2022/09/24 17:51:27;;;;;;;3.62;1.80;;;;;;;;;;1741259;80;21199;-48
2022/09/24 17:53:53;;;;;;;5.10;1.70;;;;;;;;;;1742591;81;21069;-48
2022/09/24 17:56:21;;;;;;;4.50;1.15;;;;;;;;;;1741155;80;21099;-47
2022/09/24 17:58:48;;;;;;;2.37;1.00;;;;;;;;;;1749278;81;22521;-48
2022/09/24 18:01:23;;;;;;;3.08;1.12;;;;;;;;;;1744704;80;21021;-48
2022/09/24 18:03:53;;;;;;;1.92;1.20;;;;;;;;;;1735213;80;21468;-48
2022/09/24 18:06:19;;;;;;;3.05;1.15;;;;;;;;;;1744620;80;21030;-48
2022/09/24 18:08:47;;;;;;;3.80;1.17;;;;;;;;;;1744106;80;21547;-48
2022/09/24 18:11:16;;;;;;;2.85;1.17;;;;;;;;;;1740292;80;21900;-48
2022/09/24 18:13:43;;;;;;;2.25;1.30;;;;;;;;;;1746024;80;21020;-48
2022/09/24 18:16:13;;;;;;;3.02;1.20;;;;;;;;;;1743781;80;21103;-48
2022/09/24 18:18:40;;;;;;;1.32;0.98;;;;;;;;;;1742189;80;21608;-48
2022/09/24 18:21:09;;;;;;;2.12;1.05;;;;;;;;;;1744524;80;21517;-48
2022/09/24 18:23:35;;;;;;;1.50;1.15;;;;;;;;;;1748167;81;21574;-48
2022/09/24 18:26:14;;;;;;;1.62;0.90;;;;;;;;;;1744010;80;21461;-48
2022/09/24 18:28:44;;;;;;;1.72;1.10;;;;;;;;;;1745405;80;21120;-48
2022/09/24 18:31:10;;;;;;;2.20;0.90;;;;;;;;;;1744169;80;21749;-48
2022/09/24 18:33:37;;;;;;;1.90;0.80;;;;;;;;;;1741301;80;21050;-48
2022/09/24 18:36:06;;;;;;;1.42;0.82;;;;;;;;;;1744297;80;21731;-50
2022/09/24 18:38:32;;;;;;;1.40;0.88;;;;;;;;;;1740801;80;21099;-50
2022/09/24 18:41:03;;;;;;;2.17;0.85;;;;;;;;;;1743025;80;21536;-49
2022/09/24 18:43:30;;;;;;;1.27;0.80;;;;;;;;;;1742905;80;21457;-50
2022/09/24 18:46:01;;;;;;;1.30;0.70;;;;;;;;;;1744193;80;20995;-50
2022/09/24 18:48:27;;;;;;;0.72;0.50;;;;;;;;;;1742719;80;21770;-49
2022/09/24 18:50:53;;;;;;;1.20;0.70;;;;;;;;;;1690992;81;21116;-49
2022/09/24 18:53:20;;;;;;;1.30;0.65;;;;;;;;;;1738439;80;21072;-49
2022/09/24 18:55:46;;;;;;;2.15;0.70;;;;;;;;;;1742871;80;21046;-49
2022/09/24 18:58:14;;;;;;;1.32;0.70;;;;;;;;;;1740407;80;21554;-49
2022/09/24 19:00:55;;;;;;;1.75;0.90;;;;;;;;;;1740264;80;22295;-49
2022/09/24 19:03:24;;;;;;;2.95;1.00;;;;;;;;;;1739685;80;21635;-50
2022/09/24 19:05:50;;;;;;;1.62;0.80;;;;;;;;;;1744237;80;21040;-49
2022/09/24 19:08:19;;;;;;;4.15;1.20;;;;;;;;;;1744173;80;21053;-50
2022/09/24 19:10:46;;;;;;;1.92;1.15;;;;;;;;;;1741473;81;22346;-48
2022/09/24 19:13:14;;;;;;;1.55;1.40;;;;;;;;;;1740652;80;21827;-48
2022/09/24 19:15:41;;;;;;;2.52;1.00;;;;;;;;;;1741305;80;21084;-48
2022/09/24 19:18:11;;;;;;;5.00;1.95;;;;;;;;;;1738716;80;21051;-48
2022/09/24 19:20:40;;;;;;;1.55;0.90;;;;;;;;;;1715778;82;21068;-48
2022/09/24 19:23:07;;;;;;;2.45;0.90;;;;;;;;;;1741141;81;21068;-49
2022/09/24 19:25:35;;;;;;;1.72;0.70;;;;;;;;;;1741841;80;21835;-48
2022/09/24 19:28:03;;;;;;;1.75;0.88;;;;;;;;;;1738893;80;21403;-49
2022/09/24 19:30:32;;;;;;;1.67;0.85;;;;;;;;;;1742406;81;21557;-48
2022/09/24 19:32:58;;;;;;;1.47;0.80;;;;;;;;;;1737720;80;20966;-49
2022/09/24 19:35:25;;;;;;;0.88;0.70;;;;;;;;;;1736823;80;21081;-48
2022/09/24 19:37:52;;;;;;;2.33;0.95;;;;;;;;;;1732960;80;21838;-48
2022/09/24 19:40:18;;;;;;;1.17;0.80;;;;;;;;;;1738878;80;21045;-48
2022/09/24 19:42:45;;;;;;;4.37;0.95;;;;;;;;;;1736512;80;21432;-48
2022/09/24 19:45:12;;;;;;;1.50;0.70;;;;;;;;;;1738066;80;20958;-49
2022/09/24 19:47:38;;;;;;;1.35;0.60;;;;;;;;;;1736919;81;21012;-49
2022/09/24 19:50:04;;;;;;;0.80;0.60;;;;;;;;;;1735330;80;21794;-49
2022/09/24 19:52:31;;;;;;;3.12;0.60;;;;;;;;;;1735146;81;21513;-49
2022/09/24 19:54:57;;;;;;;1.98;0.50;;;;;;;;;;1735024;80;21013;-48
2022/09/24 19:57:24;;;;;;;1.10;0.60;;;;;;;;;;1728812;80;20984;-48
2022/09/24 19:59:50;;;;;;;3.00;0.70;;;;;;;;;;1733397;81;20994;-48
2022/09/24 20:02:16;;;;;;;0.80;0.50;;;;;;;;;;1737531;80;22461;-48
2022/09/24 20:04:42;;;;;;;4.33;0.60;;;;;;;;;;1736634;80;20973;-48
2022/09/24 20:07:09;;;;;;;1.42;0.60;;;;;;;;;;1732239;81;20967;-48
2022/09/24 20:09:35;;;;;;;0.72;0.53;;;;;;;;;;1735932;81;21019;-49
2022/09/24 20:12:02;;;;;;;0.75;0.60;;;;;;;;;;1739579;80;20978;-48
2022/09/24 20:14:28;;;;;;;3.05;0.55;;;;;;;;;;1737478;80;21756;-48
2022/09/24 20:16:56;;;;;;;1.95;0.60;;;;;;;;;;1735054;80;20978;-48
2022/09/24 20:19:22;;;;;;;0.80;0.50;;;;;;;;;;1729289;80;21068;-48
2022/09/24 20:21:48;;;;;;;0.75;0.55;;;;;;;;;;1732569;81;21054;-49
2022/09/24 20:24:15;;;;;;;1.00;0.60;;;;;;;;;;1734147;80;21121;-48
2022/09/24 20:29:27;;;;;;;1.35;0.55;;;;;;;;;;1737002;81;21046;-49
2022/09/24 20:31:54;;;;;;;3.60;0.80;;;;;;;;;;1730026;80;21022;-48
2022/09/24 20:34:27;;;;;;;4.45;0.90;;;;;;;;;;1736225;80;21030;-48
2022/09/24 20:36:53;;;;;;;4.75;1.40;;;;;;;;;;1730983;81;21342;-48
2022/09/24 20:39:20;;;;;;;4.40;0.90;;;;;;;;;;1735914;80;22437;-48
2022/09/24 20:41:46;;;;;;;1.23;0.70;;;;;;;;;;1734774;81;21085;-48
2022/09/24 20:44:12;;;;;;;1.00;0.70;;;;;;;;;;1734066;81;21089;-48
2022/09/24 20:46:39;;;;;;;0.70;0.50;;;;;;;;;;1733686;81;21148;-48
2022/09/24 20:49:05;;;;;;;1.17;0.50;;;;;;;;;;1732003;80;21048;-49
2022/09/24 20:51:36;;;;;;;1.15;0.50;;;;;;;;;;1734290;80;22064;-48
2022/09/24 20:54:02;;;;;;;0.50;0.40;;;;;;;;;;1733490;81;21150;-49
2022/09/24 20:56:31;;;;;;;0.50;0.40;;;;;;;;;;1735193;81;21057;-48
2022/09/24 20:58:59;;;;;;;1.15;0.53;;;;;;;;;;1726076;80;21729;-49
2022/09/24 21:01:26;;;;;;;0.80;0.50;;;;;;;;;;1735037;80;21113;-49
2022/09/24 21:03:52;;;;;;;2.42;0.68;;;;;;;;;;1734616;80;21798;-50
2022/09/24 21:06:21;;;;;;;0.80;0.55;;;;;;;;;;1733257;80;21060;-48
2022/09/24 21:08:46;;;;;;;1.22;0.65;;;;;;;;;;1734171;80;21364;-49
2022/09/24 21:11:20;;;;;;;2.40;0.60;;;;;;;;;;1733129;80;21073;-49
2022/09/24 21:13:50;;;;;;;2.27;0.50;;;;;;;;;;1730899;81;21471;-49
2022/09/24 21:16:20;;;;;;;1.00;0.40;;;;;;;;;;1732619;80;21847;-48
2022/09/24 21:18:47;;;;;;;1.12;0.40;;;;;;;;;;1734824;81;21064;-48
2022/09/24 21:21:17;;;;;;;0.70;0.40;;;;;;;;;;1734459;81;21066;-48
2022/09/24 21:23:45;;;;;;;0.75;0.60;;;;;;;;;;1735486;81;21053;-49
2022/09/24 21:26:12;;;;;;;0.50;0.40;;;;;;;;;;1732718;81;21104;-48
2022/09/24 21:28:39;;;;;;;0.65;0.42;;;;;;;;;;1739120;81;21776;-49
2022/09/24 21:31:06;;;;;;;1.85;0.40;;;;;;;;;;1733489;81;21531;-48
2022/09/24 21:33:33;;;;;;;0.57;0.50;;;;;;;;;;1734143;81;21097;-48
2022/09/24 21:36:00;;;;;;;0.70;0.50;;;;;;;;;;1730793;80;21047;-48
2022/09/24 21:38:27;;;;;;;0.53;0.40;;;;;;;;;;1732496;80;22421;-48
2022/09/24 21:40:54;;;;;;;1.40;0.55;;;;;;;;;;1732341;80;21898;-48
2022/09/24 21:43:24;;;;;;;5.08;0.50;;;;;;;;;;1728715;81;21717;-49
2022/09/24 21:46:04;;;;;;;0.98;0.60;;;;;;;;;;1738687;80;21402;-49
2022/09/24 21:48:31;;;;;;;2.10;0.60;;;;;;;;;;1741610;80;21062;-48
2022/09/24 21:51:02;;;;;;;0.70;0.50;;;;;;;;;;1736860;81;21057;-48
2022/09/24 21:53:28;;;;;;;2.42;0.50;;;;;;;;;;1735279;80;22555;-48
2022/09/24 21:55:55;;;;;;;1.00;0.50;;;;;;;;;;1745146;81;21562;-49
2022/09/24 21:58:21;;;;;;;2.58;0.50;;;;;;;;;;1739587;80;21003;-49
2022/09/24 22:00:47;;;;;;;2.98;0.50;;;;;;;;;;1738387;80;21047;-49
2022/09/24 22:03:14;;;;;;;2.30;0.60;;;;;;;;;;1735915;80;21361;-48
2022/09/24 22:05:42;;;;;;;0.72;0.50;;;;;;;;;;1742822;80;21886;-49
2022/09/24 22:08:10;;;;;;;0.85;0.50;;;;;;;;;;1741069;80;21035;-48
2022/09/24 22:10:38;;;;;;;1.02;0.60;;;;;;;;;;1737668;81;21571;-49
2022/09/24 22:13:04;;;;;;;1.00;0.57;;;;;;;;;;1744110;80;21089;-49
2022/09/24 22:15:31;;;;;;;0.60;0.50;;;;;;;;;;1740422;80;21083;-49
2022/09/24 22:17:58;;;;;;;4.12;0.60;;;;;;;;;;1740237;80;21918;-49
2022/09/24 22:20:25;;;;;;;0.90;0.50;;;;;;;;;;1740045;80;21761;-48
2022/09/24 22:22:51;;;;;;;0.80;0.50;;;;;;;;;;1742451;80;21499;-48
2022/09/24 22:25:17;;;;;;;1.85;0.53;;;;;;;;;;1741266;80;21021;-48
2022/09/24 22:27:43;;;;;;;0.65;0.50;;;;;;;;;;1739867;81;21104;-49
2022/09/24 22:30:11;;;;;;;1.55;0.50;;;;;;;;;;1745548;81;22627;-49
2022/09/24 22:32:38;;;;;;;0.78;0.50;;;;;;;;;;1744542;80;21147;-48
2022/09/24 22:37:50;;;;;;;1.00;0.50;;;;;;;;;;1741538;80;21029;-49
2022/09/24 22:40:16;;;;;;;0.82;0.60;;;;;;;;;;1744575;80;21030;-49
2022/09/24 22:42:43;;;;;;;0.80;0.50;;;;;;;;;;1744937;81;21842;-48
2022/09/24 22:45:09;;;;;;;1.72;0.50;;;;;;;;;;1743303;80;21450;-48
2022/09/24 22:47:36;;;;;;;2.35;0.50;;;;;;;;;;1733245;80;21012;-48
2022/09/24 22:50:02;;;;;;;1.62;0.60;;;;;;;;;;1737387;81;21062;-49
2022/09/24 22:52:28;;;;;;;0.70;0.50;;;;;;;;;;1738838;80;21053;-49
2022/09/24 22:54:56;;;;;;;1.67;0.50;;;;;;;;;;1739113;80;21832;-48
2022/09/24 22:57:23;;;;;;;3.55;0.60;;;;;;;;;;1735031;80;21046;-49
2022/09/24 22:59:49;;;;;;;1.37;0.60;;;;;;;;;;1738288;81;20959;-48
2022/09/24 23:02:15;;;;;;;1.60;0.70;;;;;;;;;;1739398;80;20965;-48
2022/09/24 23:04:41;;;;;;;0.70;0.50;;;;;;;;;;1737391;81;20997;-49
2022/09/24 23:07:09;;;;;;;0.70;0.60;;;;;;;;;;1703541;83;21331;-48
2022/09/24 23:09:37;;;;;;;0.98;0.60;;;;;;;;;;1699184;82;21038;-49
2022/09/24 23:12:03;;;;;;;1.98;0.60;;;;;;;;;;1727825;81;21045;-49
2022/09/24 23:14:30;;;;;;;4.20;0.60;;;;;;;;;;1739644;81;21841;-48
2022/09/24 23:16:57;;;;;;;4.20;0.60;;;;;;;;;;1735220;81;21892;-49
2022/09/24 23:19:47;;;;;;;1.65;0.70;;;;;;;;;;1735576;80;22829;-48
2022/09/24 23:21:52;;;;;;;0.90;0.70;;;;;;;;;;1723572;81;21109;-48
2022/09/24 23:24:18;;;;;;;1.25;0.60;;;;;;;;;;1732353;81;21444;-48
2022/09/24 23:26:45;;;;;;;1.45;0.57;;;;;;;;;;1732568;81;21073;-48
2022/09/24 23:29:11;;;;;;;0.68;0.50;;;;;;;;;;1735996;80;21053;-49
2022/09/24 23:31:38;;;;;;;1.32;0.60;;;;;;;;;;1737139;81;21884;-49
2022/09/24 23:34:06;;;;;;;6.05;0.70;;;;;;;;;;1731865;81;21048;-48
2022/09/24 23:36:33;;;;;;;3.85;0.60;;;;;;;;;;1735507;80;21058;-49
2022/09/24 23:38:59;;;;;;;1.20;0.70;;;;;;;;;;1730825;81;21036;-49
2022/09/24 23:41:27;;;;;;;1.30;0.72;;;;;;;;;;1737133;80;20994;-48
2022/09/24 23:43:54;;;;;;;1.77;0.88;;;;;;;;;;1735471;81;21793;-49
2022/09/24 23:46:20;;;;;;;1.15;0.78;;;;;;;;;;1739796;80;21056;-48
2022/09/24 23:48:46;;;;;;;1.30;0.60;;;;;;;;;;1740350;80;21471;-48
2022/09/24 23:51:13;;;;;;;2.05;0.60;;;;;;;;;;1739631;80;21045;-48
2022/09/24 23:53:40;;;;;;;0.70;0.50;;;;;;;;;;1742700;80;21483;-49
2022/09/24 23:56:07;;;;;;;0.60;0.50;;;;;;;;;;1740342;80;21581;-49
2022/09/24 23:58:33;;;;;;;3.22;0.50;;;;;;;;;;1737429;80;21109;-48
